Airfield :







YOU CAN JOIN US ON...

 
LOGIN :

Register | Disclaimer

   EN    FR    IT 

 









Legend :    VFR   Marginal VFR   IFR   Intensive IFR   Very Intensive IFR
Visi :
Ceiling :
>= 8 km
>= 3000ft
5 to 8 km
1000 to 3000 ft
1500m to 5 km
500 to 1000 ft
800 to 1500m
200 to 500 ft
< 800m
< 200 ft
Symbols :   Thunderstorms  Fog  Heavy snow  Heavy precipitations  Wind > 20 kt






- Airport Elevation : 160 ft
- IATA code : YYG


CYYG - Charlottetown

CURRENT METAR :
  • 062000Z 25012G18KT 15SM BKN026 M02/M06 A2978 RMK SC7 SLP088

EXPIRED METARs :
  • 061900Z 25012G19KT 15SM BKN026 M02/M07 A2976 RMK SC7 SLP081
  • 061800Z 26014G22KT 15SM BKN026 M01/M06 A2974 RMK SC7 SLP074

TAF TAF CYYG
Valid from the 06 at 18:00 until the 07 at 06:00 UTC


061738Z 0618/0706 25012G22KT P6SM BKN025
TEMPO 0618/0706 5SM -SHSN BKN020
BECMG 0704/0706 27008KT RMK NXT FCST BY 070000Z



MET'MAP, your aeronautical weather chart ! - Copyright ORBIFLY December 2007 - Disclaimer

ORBIFLY MET'MAP TEAM :

Programming & Development : Alexandra Zaïnal
Concept & original design : Baudouin d'Aumeries
Assistance for programming : Marc-Olivier Méhu
Technical & hardware support : Manuel Goepfert

Contact : metmap@orbifly.com




SOURCES & CREDITS :

   NOAA